Time;durP1;ratioP1;P1;durP2;ratioP2;P2;SDS_P1;SDS_P2;PMS_P1;PMS_P2;Temp;Humidity;BMP_temperature;BMP_pressure;BME280_temperature;BME280_humidity;BME280_pressure;Samples;Min_cycle;Max_cycle;Signal;HPM_P1;HPM_P2
2021/12/31 00:02:18;;;;;;;1.92;1.35;;;;;;;;;;5049421;28;20381;-75
2021/12/31 00:04:43;;;;;;;1.17;1.00;;;;;;;;;;5049462;28;20033;-75
2021/12/31 00:07:09;;;;;;;1.20;1.00;;;;;;;;;;5049687;28;20032;-75
2021/12/31 00:09:36;;;;;;;2.03;1.08;;;;;;;;;;5047853;28;20024;-74
2021/12/31 00:12:03;;;;;;;4.45;1.20;;;;;;;;;;5049792;28;20043;-75
2021/12/31 00:14:29;;;;;;;1.25;0.90;;;;;;;;;;5047601;28;20025;-75
2021/12/31 00:16:55;;;;;;;2.78;1.15;;;;;;;;;;5049794;28;20059;-73
2021/12/31 00:19:21;;;;;;;1.50;1.15;;;;;;;;;;5081445;28;20039;-75
2021/12/31 00:21:49;;;;;;;1.67;0.98;;;;;;;;;;5049437;28;20368;-75
2021/12/31 00:24:14;;;;;;;3.15;1.15;;;;;;;;;;5048800;28;20055;-74
2021/12/31 00:26:40;;;;;;;0.85;0.85;;;;;;;;;;5048719;28;20405;-74
2021/12/31 00:29:05;;;;;;;1.17;0.90;;;;;;;;;;5047372;28;20029;-75
2021/12/31 00:31:31;;;;;;;1.00;0.90;;;;;;;;;;5049036;28;20075;-74
2021/12/31 00:33:56;;;;;;;1.00;0.90;;;;;;;;;;5047577;28;20020;-75
2021/12/31 00:36:22;;;;;;;1.60;1.30;;;;;;;;;;5049303;28;20499;-75
2021/12/31 00:38:47;;;;;;;3.38;1.17;;;;;;;;;;5049151;28;20041;-75
2021/12/31 00:41:13;;;;;;;1.73;1.20;;;;;;;;;;5049177;28;20033;-74
2021/12/31 00:43:38;;;;;;;1.75;1.02;;;;;;;;;;5048541;28;20048;-75
2021/12/31 00:46:04;;;;;;;2.05;1.10;;;;;;;;;;5047609;28;20488;-74
2021/12/31 00:48:30;;;;;;;3.10;0.93;;;;;;;;;;5048671;28;20068;-74
2021/12/31 00:50:56;;;;;;;1.63;1.30;;;;;;;;;;5048731;28;20035;-75
2021/12/31 00:53:23;;;;;;;1.55;0.93;;;;;;;;;;5048816;28;20033;-75
2021/12/31 00:55:48;;;;;;;1.00;0.90;;;;;;;;;;5048327;28;20485;-75
2021/12/31 00:58:14;;;;;;;2.22;1.00;;;;;;;;;;5051417;28;20036;-76
2021/12/31 01:00:39;;;;;;;1.42;1.10;;;;;;;;;;5052189;28;20461;-75
2021/12/31 01:03:05;;;;;;;2.90;1.20;;;;;;;;;;5049867;28;20033;-75
2021/12/31 01:05:31;;;;;;;1.63;0.98;;;;;;;;;;5046933;28;20039;-75
2021/12/31 01:07:57;;;;;;;2.55;1.33;;;;;;;;;;5047852;28;20457;-75
2021/12/31 01:10:25;;;;;;;2.03;1.00;;;;;;;;;;5048403;28;20116;-74
2021/12/31 01:12:51;;;;;;;1.95;1.23;;;;;;;;;;5048840;28;20104;-75
2021/12/31 01:15:33;;;;;;;1.42;1.20;;;;;;;;;;5048167;28;20120;-75
2021/12/31 01:20:24;;;;;;;2.90;1.13;;;;;;;;;;5048060;28;20401;-74
2021/12/31 01:22:49;;;;;;;2.45;1.25;;;;;;;;;;5047169;28;20075;-74
2021/12/31 01:25:15;;;;;;;18.30;2.05;;;;;;;;;;5048081;28;20028;-74
2021/12/31 01:27:42;;;;;;;3.25;1.48;;;;;;;;;;5048421;28;20036;-75
2021/12/31 01:30:09;;;;;;;2.90;1.27;;;;;;;;;;5046659;28;20033;-75
2021/12/31 01:32:35;;;;;;;1.35;1.25;;;;;;;;;;5048307;28;20039;-75
2021/12/31 01:35:01;;;;;;;5.97;1.50;;;;;;;;;;5046062;28;20041;-75
2021/12/31 01:37:27;;;;;;;0.95;0.90;;;;;;;;;;5046673;28;20530;-74
2021/12/31 01:39:53;;;;;;;3.85;1.40;;;;;;;;;;5046748;28;20048;-74
2021/12/31 01:42:25;;;;;;;1.33;1.10;;;;;;;;;;5050475;28;20060;-75
2021/12/31 01:45:02;;;;;;;2.70;1.25;;;;;;;;;;5052285;28;20029;-75
2021/12/31 01:47:36;;;;;;;2.42;1.10;;;;;;;;;;5052526;28;20028;-75
2021/12/31 01:50:07;;;;;;;2.50;1.15;;;;;;;;;;5052817;28;20036;-74
2021/12/31 01:52:35;;;;;;;1.98;0.95;;;;;;;;;;5057396;28;20039;-75
2021/12/31 01:55:02;;;;;;;3.85;1.50;;;;;;;;;;5051116;28;20064;-74
2021/12/31 01:57:29;;;;;;;1.83;1.35;;;;;;;;;;5047873;28;20025;-75
2021/12/31 01:59:54;;;;;;;2.00;1.45;;;;;;;;;;5053874;28;20033;-75
2021/12/31 02:02:20;;;;;;;2.90;1.40;;;;;;;;;;5051720;28;20538;-74
2021/12/31 02:04:46;;;;;;;2.00;1.30;;;;;;;;;;5047423;28;20025;-75
2021/12/31 02:07:12;;;;;;;3.22;1.10;;;;;;;;;;5051489;28;20112;-74
2021/12/31 02:09:45;;;;;;;3.60;1.20;;;;;;;;;;5052225;28;20048;-74
2021/12/31 02:12:11;;;;;;;3.85;1.38;;;;;;;;;;5050669;28;20033;-75
2021/12/31 02:14:37;;;;;;;3.78;1.52;;;;;;;;;;5051501;28;20078;-75
2021/12/31 02:17:07;;;;;;;4.93;1.17;;;;;;;;;;5033854;28;20057;-75
2021/12/31 02:19:33;;;;;;;1.10;0.90;;;;;;;;;;5050376;28;20032;-74
2021/12/31 02:21:59;;;;;;;3.75;1.30;;;;;;;;;;5050309;28;20028;-74
2021/12/31 02:24:24;;;;;;;2.63;1.27;;;;;;;;;;5049670;28;20029;-75
2021/12/31 02:26:50;;;;;;;1.48;1.30;;;;;;;;;;5051840;28;20473;-74
2021/12/31 02:29:24;;;;;;;2.72;1.48;;;;;;;;;;5051999;28;20468;-74
2021/12/31 02:31:50;;;;;;;4.07;1.75;;;;;;;;;;5050224;28;20468;-74
2021/12/31 02:34:15;;;;;;;2.63;1.38;;;;;;;;;;5051042;28;20033;-74
2021/12/31 02:36:41;;;;;;;2.60;1.20;;;;;;;;;;5050042;28;20041;-75
2021/12/31 02:39:07;;;;;;;2.05;1.35;;;;;;;;;;5050117;28;20063;-74
2021/12/31 02:41:32;;;;;;;3.75;1.30;;;;;;;;;;5048748;28;20032;-74
2021/12/31 02:43:58;;;;;;;5.33;1.40;;;;;;;;;;5048276;28;20024;-73
2021/12/31 02:46:24;;;;;;;1.50;1.27;;;;;;;;;;5048747;28;20044;-74
2021/12/31 02:48:56;;;;;;;3.55;2.10;;;;;;;;;;5050763;28;20040;-75
2021/12/31 02:51:22;;;;;;;2.60;1.40;;;;;;;;;;5048588;28;20025;-75
2021/12/31 02:53:52;;;;;;;3.72;1.15;;;;;;;;;;5049416;28;20028;-75
2021/12/31 02:56:18;;;;;;;1.40;1.30;;;;;;;;;;5048629;28;20078;-75
2021/12/31 02:58:44;;;;;;;2.92;1.30;;;;;;;;;;5050222;28;20554;-74
2021/12/31 03:01:12;;;;;;;2.88;1.30;;;;;;;;;;5049903;28;20021;-74
2021/12/31 03:03:39;;;;;;;3.33;1.00;;;;;;;;;;5047770;28;20093;-74
2021/12/31 03:06:05;;;;;;;2.97;1.10;;;;;;;;;;5050023;28;20079;-75
2021/12/31 03:08:37;;;;;;;3.72;1.23;;;;;;;;;;5047976;28;20028;-74
2021/12/31 03:11:04;;;;;;;2.05;1.05;;;;;;;;;;5048372;28;20104;-74
2021/12/31 03:13:30;;;;;;;1.02;0.93;;;;;;;;;;5047488;28;20025;-75
2021/12/31 03:15:58;;;;;;;1.10;1.00;;;;;;;;;;5048143;28;20041;-75
2021/12/31 03:18:23;;;;;;;1.45;1.00;;;;;;;;;;5048950;28;20063;-75
2021/12/31 03:21:04;;;;;;;2.15;0.90;;;;;;;;;;5048029;28;20041;-75
2021/12/31 03:23:31;;;;;;;2.45;1.10;;;;;;;;;;5048764;28;20039;-75
2021/12/31 03:25:57;;;;;;;1.30;1.20;;;;;;;;;;5048193;28;20035;-72
2021/12/31 03:28:22;;;;;;;1.42;1.20;;;;;;;;;;5049388;28;20025;-74
2021/12/31 03:30:48;;;;;;;2.55;1.02;;;;;;;;;;5048172;28;20425;-73
2021/12/31 03:33:15;;;;;;;1.75;1.10;;;;;;;;;;5049722;28;20049;-74
2021/12/31 03:35:41;;;;;;;2.38;1.40;;;;;;;;;;4965197;28;2351019;-73
2021/12/31 03:38:07;;;;;;;2.55;1.15;;;;;;;;;;5050302;28;20083;-73
2021/12/31 03:40:32;;;;;;;1.33;1.05;;;;;;;;;;5050330;28;20589;-73
2021/12/31 03:42:59;;;;;;;2.65;1.42;;;;;;;;;;5048985;28;20029;-73
2021/12/31 03:45:25;;;;;;;1.33;1.23;;;;;;;;;;5048396;28;20017;-74
2021/12/31 03:47:51;;;;;;;1.42;1.23;;;;;;;;;;5050382;28;20029;-73
2021/12/31 03:50:17;;;;;;;1.52;1.10;;;;;;;;;;5048676;28;20028;-77
2021/12/31 03:52:43;;;;;;;1.13;1.00;;;;;;;;;;5050005;28;20155;-78
2021/12/31 03:55:10;;;;;;;2.13;1.20;;;;;;;;;;5049931;28;20044;-78
2021/12/31 03:57:38;;;;;;;4.30;1.30;;;;;;;;;;5048850;28;20029;-78
2021/12/31 04:00:05;;;;;;;1.23;0.82;;;;;;;;;;5048761;28;20388;-79
2021/12/31 04:02:31;;;;;;;2.83;1.17;;;;;;;;;;5048507;28;20079;-79
2021/12/31 04:04:56;;;;;;;1.20;1.10;;;;;;;;;;5048857;28;20480;-77
2021/12/31 04:07:22;;;;;;;4.07;1.42;;;;;;;;;;5048588;28;20029;-77
2021/12/31 04:09:47;;;;;;;1.05;0.95;;;;;;;;;;5049693;28;20032;-77
2021/12/31 04:12:13;;;;;;;1.15;1.05;;;;;;;;;;5048316;28;20118;-76
2021/12/31 04:14:38;;;;;;;1.33;1.10;;;;;;;;;;5048098;28;20686;-76
2021/12/31 04:17:04;;;;;;;4.07;1.40;;;;;;;;;;5048707;28;20032;-78
2021/12/31 04:19:30;;;;;;;1.58;1.10;;;;;;;;;;5049628;28;20086;-78
2021/12/31 04:21:56;;;;;;;1.85;1.05;;;;;;;;;;5048940;28;20031;-77
2021/12/31 04:24:52;;;;;;;3.20;1.08;;;;;;;;;;5048922;28;20309;-77
2021/12/31 04:27:16;;;;;;;3.42;0.90;;;;;;;;;;5049691;28;20032;-80
2021/12/31 04:29:49;;;;;;;2.35;1.17;;;;;;;;;;5047849;28;20033;-79
2021/12/31 04:32:14;;;;;;;1.30;0.85;;;;;;;;;;5044051;28;20123;-76
2021/12/31 04:34:40;;;;;;;2.08;1.00;;;;;;;;;;5046905;28;20120;-79
2021/12/31 04:37:05;;;;;;;5.15;1.75;;;;;;;;;;5043130;28;20028;-78
2021/12/31 04:39:31;;;;;;;2.85;1.48;;;;;;;;;;5049503;28;20017;-76
2021/12/31 04:41:56;;;;;;;1.38;1.17;;;;;;;;;;5047608;28;20033;-77
2021/12/31 04:44:22;;;;;;;1.13;1.02;;;;;;;;;;5048227;28;20755;-76
2021/12/31 04:46:47;;;;;;;1.00;0.95;;;;;;;;;;5048113;28;20029;-78
2021/12/31 04:49:13;;;;;;;3.15;1.42;;;;;;;;;;5048206;28;20116;-79
2021/12/31 04:51:38;;;;;;;1.77;1.20;;;;;;;;;;5048802;28;20096;-75
2021/12/31 04:54:06;;;;;;;1.20;1.10;;;;;;;;;;5049318;28;20056;-78
2021/12/31 04:56:32;;;;;;;1.85;1.65;;;;;;;;;;5047286;28;20028;-76
2021/12/31 04:58:57;;;;;;;2.15;1.30;;;;;;;;;;5048947;28;20037;-77
2021/12/31 05:01:23;;;;;;;3.95;1.40;;;;;;;;;;5048875;28;20025;-79
2021/12/31 05:03:49;;;;;;;2.15;1.20;;;;;;;;;;5048727;28;20606;-79
2021/12/31 05:06:15;;;;;;;2.25;1.40;;;;;;;;;;5049153;28;20033;-77
2021/12/31 05:08:41;;;;;;;3.33;1.45;;;;;;;;;;5048645;28;20025;-77
2021/12/31 05:11:06;;;;;;;3.28;1.70;;;;;;;;;;5049307;28;20351;-78
2021/12/31 05:13:32;;;;;;;1.83;1.35;;;;;;;;;;5048177;28;20362;-76
2021/12/31 05:16:03;;;;;;;1.85;1.50;;;;;;;;;;5047242;28;20063;-78
2021/12/31 05:18:29;;;;;;;3.85;1.50;;;;;;;;;;5047375;28;20602;-77
2021/12/31 05:20:55;;;;;;;1.38;1.27;;;;;;;;;;5046164;28;20033;-76
2021/12/31 05:23:20;;;;;;;4.00;1.50;;;;;;;;;;5045709;28;20508;-75
2021/12/31 05:25:46;;;;;;;2.65;1.60;;;;;;;;;;5047019;28;20448;-77
2021/12/31 05:28:11;;;;;;;3.28;1.75;;;;;;;;;;5047475;28;20356;-76
2021/12/31 05:30:37;;;;;;;3.50;1.42;;;;;;;;;;5047441;28;20035;-79
2021/12/31 05:33:03;;;;;;;5.07;1.77;;;;;;;;;;5048441;28;20044;-78
2021/12/31 05:35:28;;;;;;;3.08;1.73;;;;;;;;;;5047590;28;20053;-78
2021/12/31 05:37:54;;;;;;;1.88;1.40;;;;;;;;;;5047001;28;20156;-79
2021/12/31 05:40:20;;;;;;;2.42;1.58;;;;;;;;;;5047716;28;20119;-76
2021/12/31 05:42:46;;;;;;;2.15;1.45;;;;;;;;;;5048823;28;20374;-76
2021/12/31 05:45:11;;;;;;;2.42;1.80;;;;;;;;;;5046471;28;20036;-78
2021/12/31 05:47:38;;;;;;;1.42;1.33;;;;;;;;;;5048312;28;20025;-78
2021/12/31 05:50:07;;;;;;;1.30;1.20;;;;;;;;;;5046990;28;20021;-77
2021/12/31 05:52:34;;;;;;;3.03;1.42;;;;;;;;;;5048649;28;20669;-77
2021/12/31 05:54:59;;;;;;;1.42;1.33;;;;;;;;;;5048784;28;20108;-77
2021/12/31 05:57:25;;;;;;;1.20;1.20;;;;;;;;;;5048544;28;20103;-78
2021/12/31 05:59:51;;;;;;;2.47;1.42;;;;;;;;;;5049154;28;20036;-78
2021/12/31 06:02:16;;;;;;;4.05;1.88;;;;;;;;;;5050273;28;20388;-79
2021/12/31 06:04:42;;;;;;;2.30;1.73;;;;;;;;;;5050533;28;20029;-77
2021/12/31 06:07:08;;;;;;;2.05;1.73;;;;;;;;;;5057165;28;20032;-76
2021/12/31 06:09:34;;;;;;;2.00;1.70;;;;;;;;;;5060638;28;20024;-78
2021/12/31 06:12:00;;;;;;;3.10;1.80;;;;;;;;;;5058542;28;20035;-77
2021/12/31 06:14:26;;;;;;;2.30;1.73;;;;;;;;;;5055235;28;20477;-77
2021/12/31 06:16:52;;;;;;;1.50;1.40;;;;;;;;;;5050375;28;20070;-79
2021/12/31 06:19:18;;;;;;;2.72;2.03;;;;;;;;;;5050548;28;20035;-78
2021/12/31 06:21:44;;;;;;;3.40;1.83;;;;;;;;;;5048215;28;20494;-76
2021/12/31 06:24:10;;;;;;;3.10;2.13;;;;;;;;;;5047253;28;20485;-77
2021/12/31 06:26:37;;;;;;;3.33;2.00;;;;;;;;;;5046495;28;20024;-78
2021/12/31 06:29:03;;;;;;;2.17;1.45;;;;;;;;;;5050371;28;20027;-79
2021/12/31 06:31:29;;;;;;;4.85;1.75;;;;;;;;;;5051505;28;20429;-79
2021/12/31 06:33:55;;;;;;;1.77;1.52;;;;;;;;;;5051401;28;20110;-77
2021/12/31 06:36:21;;;;;;;5.95;1.88;;;;;;;;;;5050027;28;20045;-77
2021/12/31 06:38:47;;;;;;;3.53;1.83;;;;;;;;;;5049354;28;20041;-77
2021/12/31 06:41:15;;;;;;;1.38;1.27;;;;;;;;;;5049452;28;20028;-78
2021/12/31 06:43:42;;;;;;;5.93;1.92;;;;;;;;;;5050886;28;20039;-77
2021/12/31 06:46:07;;;;;;;2.33;1.60;;;;;;;;;;5051925;28;20056;-77
2021/12/31 06:48:33;;;;;;;3.30;1.92;;;;;;;;;;5051792;28;20546;-78
2021/12/31 06:50:58;;;;;;;2.30;1.77;;;;;;;;;;5050082;28;20029;-78
2021/12/31 06:53:24;;;;;;;4.35;1.77;;;;;;;;;;5052130;28;20020;-76
2021/12/31 06:55:49;;;;;;;3.15;1.40;;;;;;;;;;5052438;28;20063;-79
2021/12/31 06:58:15;;;;;;;1.98;1.75;;;;;;;;;;5055466;28;20392;-78
2021/12/31 07:00:41;;;;;;;5.07;1.90;;;;;;;;;;5060834;28;20025;-79
2021/12/31 07:03:09;;;;;;;3.65;1.80;;;;;;;;;;5051768;28;20025;-78
2021/12/31 07:05:35;;;;;;;6.10;1.70;;;;;;;;;;5049169;28;20513;-78
2021/12/31 07:08:00;;;;;;;2.38;2.17;;;;;;;;;;5051384;28;20389;-78
2021/12/31 07:10:27;;;;;;;2.08;1.88;;;;;;;;;;5050686;28;20029;-77
2021/12/31 07:12:58;;;;;;;2.83;1.90;;;;;;;;;;5050990;28;20108;-77
2021/12/31 07:15:23;;;;;;;1.85;1.58;;;;;;;;;;5050197;28;20074;-77
2021/12/31 07:17:49;;;;;;;2.90;1.80;;;;;;;;;;5050997;28;20033;-79
2021/12/31 07:20:14;;;;;;;3.88;2.03;;;;;;;;;;5051106;28;20073;-79
2021/12/31 07:22:40;;;;;;;3.33;2.05;;;;;;;;;;5050615;28;20051;-79
2021/12/31 07:25:06;;;;;;;3.35;1.95;;;;;;;;;;5052827;28;20116;-79
2021/12/31 07:27:32;;;;;;;4.30;1.73;;;;;;;;;;5053916;28;20028;-77
2021/12/31 07:29:58;;;;;;;3.28;1.83;;;;;;;;;;5050721;28;20029;-77
2021/12/31 07:32:24;;;;;;;3.00;1.85;;;;;;;;;;5050807;28;20086;-79
2021/12/31 07:34:49;;;;;;;3.38;1.67;;;;;;;;;;5049733;28;20041;-78
2021/12/31 07:37:15;;;;;;;4.55;2.10;;;;;;;;;;5051181;28;20028;-78
2021/12/31 07:39:46;;;;;;;3.65;1.73;;;;;;;;;;5050737;28;20036;-79
2021/12/31 07:42:14;;;;;;;5.93;2.30;;;;;;;;;;5049821;28;20029;-78
2021/12/31 07:44:40;;;;;;;3.90;1.90;;;;;;;;;;5048415;28;20033;-78
2021/12/31 07:47:05;;;;;;;4.18;1.50;;;;;;;;;;5049163;28;20027;-77
2021/12/31 07:49:31;;;;;;;2.47;1.75;;;;;;;;;;5048542;28;20035;-74
2021/12/31 07:51:56;;;;;;;2.38;1.75;;;;;;;;;;5048592;28;20024;-78
2021/12/31 07:54:22;;;;;;;5.15;1.90;;;;;;;;;;5049939;28;20127;-77
2021/12/31 07:56:48;;;;;;;4.03;1.80;;;;;;;;;;5048836;28;20428;-76
2021/12/31 07:59:13;;;;;;;2.72;2.38;;;;;;;;;;5048931;28;20438;-77
2021/12/31 08:01:39;;;;;;;4.57;2.28;;;;;;;;;;5049601;28;20055;-77
2021/12/31 08:04:04;;;;;;;2.97;2.20;;;;;;;;;;5048326;28;20110;-77
2021/12/31 08:06:30;;;;;;;2.05;1.85;;;;;;;;;;5050289;28;20021;-79
2021/12/31 08:08:55;;;;;;;3.70;1.98;;;;;;;;;;5047286;28;20391;-79
2021/12/31 08:11:21;;;;;;;3.90;1.70;;;;;;;;;;5048657;28;20056;-78
2021/12/31 08:13:46;;;;;;;3.35;1.98;;;;;;;;;;5048762;28;20025;-78
2021/12/31 08:16:12;;;;;;;3.83;2.17;;;;;;;;;;5048655;28;20540;-78
2021/12/31 08:18:37;;;;;;;2.40;1.83;;;;;;;;;;5044316;28;20121;-78
2021/12/31 08:21:03;;;;;;;3.63;1.67;;;;;;;;;;5048705;28;20385;-76
2021/12/31 08:23:28;;;;;;;2.55;1.90;;;;;;;;;;5047039;28;20071;-77
2021/12/31 08:25:55;;;;;;;3.30;1.73;;;;;;;;;;5049680;28;20480;-78
2021/12/31 08:28:21;;;;;;;5.45;1.80;;;;;;;;;;5049902;28;20049;-76
2021/12/31 08:30:47;;;;;;;3.03;1.40;;;;;;;;;;5050416;28;20079;-78
2021/12/31 08:33:13;;;;;;;2.55;1.63;;;;;;;;;;5052456;28;20492;-77
2021/12/31 08:35:38;;;;;;;2.05;1.73;;;;;;;;;;5050295;28;20045;-77
2021/12/31 08:38:04;;;;;;;2.53;1.50;;;;;;;;;;5051568;28;20033;-78
2021/12/31 08:40:30;;;;;;;4.53;2.17;;;;;;;;;;5054054;28;20378;-77
2021/12/31 08:42:55;;;;;;;3.50;1.52;;;;;;;;;;5060492;28;20035;-78
2021/12/31 08:45:21;;;;;;;3.47;1.65;;;;;;;;;;5053707;28;20021;-78
2021/12/31 08:47:47;;;;;;;4.45;1.70;;;;;;;;;;5053370;28;20033;-79
2021/12/31 08:50:13;;;;;;;5.00;1.80;;;;;;;;;;5050770;28;20067;-77
2021/12/31 08:52:38;;;;;;;6.43;1.90;;;;;;;;;;5048649;28;20040;-79
2021/12/31 08:55:06;;;;;;;4.57;1.70;;;;;;;;;;5049361;28;20028;-77
2021/12/31 08:57:32;;;;;;;5.45;2.33;;;;;;;;;;5049238;28;20408;-78
2021/12/31 08:59:57;;;;;;;3.03;1.75;;;;;;;;;;5047786;28;20124;-79
2021/12/31 09:02:23;;;;;;;5.05;2.17;;;;;;;;;;5048902;28;20349;-78
2021/12/31 09:04:50;;;;;;;3.80;2.03;;;;;;;;;;5047044;28;20033;-78
2021/12/31 09:07:15;;;;;;;4.03;2.00;;;;;;;;;;5048581;28;20086;-77
2021/12/31 09:09:41;;;;;;;5.97;2.08;;;;;;;;;;5048694;28;20044;-79
2021/12/31 09:12:07;;;;;;;4.85;2.20;;;;;;;;;;5047388;28;20025;-79
2021/12/31 09:14:33;;;;;;;2.45;1.95;;;;;;;;;;5048131;28;20382;-77
2021/12/31 09:17:00;;;;;;;4.57;3.00;;;;;;;;;;5047338;28;20083;-76
2021/12/31 09:19:25;;;;;;;2.90;2.10;;;;;;;;;;5048295;28;20449;-76
2021/12/31 09:21:51;;;;;;;3.15;1.80;;;;;;;;;;5047134;28;20116;-77
2021/12/31 09:24:16;;;;;;;2.30;1.83;;;;;;;;;;5047549;28;20382;-77
2021/12/31 09:26:42;;;;;;;4.47;2.15;;;;;;;;;;5046858;28;20036;-77
2021/12/31 09:29:07;;;;;;;4.65;1.70;;;;;;;;;;5046976;28;20029;-79
2021/12/31 09:31:33;;;;;;;3.40;2.10;;;;;;;;;;5047380;28;20017;-78
2021/12/31 09:33:58;;;;;;;3.65;2.00;;;;;;;;;;5046533;28;20021;-78
2021/12/31 09:36:24;;;;;;;5.75;1.77;;;;;;;;;;5046357;28;20049;-78
2021/12/31 09:38:49;;;;;;;3.88;1.40;;;;;;;;;;5046940;28;20028;-78
2021/12/31 09:41:15;;;;;;;4.95;1.65;;;;;;;;;;5047442;28;20113;-79
2021/12/31 09:43:47;;;;;;;3.22;1.52;;;;;;;;;;5048230;28;20033;-79
2021/12/31 09:46:13;;;;;;;6.90;3.95;;;;;;;;;;5047426;28;20064;-78
2021/12/31 09:48:38;;;;;;;4.63;1.98;;;;;;;;;;5030029;28;20453;-77
2021/12/31 09:51:06;;;;;;;1.98;1.77;;;;;;;;;;5046886;28;20101;-78
2021/12/31 09:53:33;;;;;;;3.10;1.85;;;;;;;;;;5047507;28;20032;-77
2021/12/31 09:55:59;;;;;;;2.90;1.92;;;;;;;;;;5047251;28;20021;-80
2021/12/31 09:58:26;;;;;;;5.68;1.95;;;;;;;;;;5048455;28;20440;-78
2021/12/31 10:01:00;;;;;;;2.15;1.75;;;;;;;;;;5047592;28;20102;-78
2021/12/31 10:03:31;;;;;;;2.47;1.85;;;;;;;;;;5051540;28;20025;-77
2021/12/31 10:06:12;;;;;;;3.47;2.00;;;;;;;;;;5051051;28;20033;-78
2021/12/31 10:08:45;;;;;;;7.78;2.55;;;;;;;;;;5048654;28;20078;-78
2021/12/31 10:11:13;;;;;;;4.85;2.38;;;;;;;;;;5051886;28;20021;-79
2021/12/31 10:13:42;;;;;;;3.65;2.47;;;;;;;;;;5051947;28;20029;-79
2021/12/31 10:16:27;;;;;;;6.70;1.77;;;;;;;;;;5050784;28;20032;-77
2021/12/31 10:19:11;;;;;;;3.42;2.08;;;;;;;;;;5050736;28;20028;-79
2021/12/31 10:21:46;;;;;;;4.85;2.47;;;;;;;;;;5047142;28;20049;-77
2021/12/31 10:24:38;;;;;;;4.18;1.70;;;;;;;;;;5048856;28;20435;-77
2021/12/31 10:27:13;;;;;;;4.15;2.00;;;;;;;;;;5047955;28;20174;-78
2021/12/31 10:29:57;;;;;;;6.97;2.20;;;;;;;;;;5049881;28;20025;-77
2021/12/31 10:32:31;;;;;;;4.53;2.00;;;;;;;;;;5052058;28;20043;-78
2021/12/31 10:35:14;;;;;;;5.05;1.75;;;;;;;;;;5046259;28;20041;-78
2021/12/31 10:37:52;;;;;;;2.83;1.88;;;;;;;;;;5055951;28;20485;-78
2021/12/31 10:40:28;;;;;;;4.00;2.15;;;;;;;;;;5050268;28;20021;-78
2021/12/31 10:43:27;;;;;;;2.80;1.55;;;;;;;;;;5050148;28;20029;-78
2021/12/31 10:46:03;;;;;;;3.83;1.70;;;;;;;;;;5050582;28;20053;-79
2021/12/31 10:48:39;;;;;;;3.03;1.77;;;;;;;;;;5049015;28;20032;-77
2021/12/31 10:51:05;;;;;;;3.00;1.63;;;;;;;;;;5051035;28;20436;-80
2021/12/31 10:53:34;;;;;;;12.90;7.82;;;;;;;;;;5048809;28;20024;-77
2021/12/31 10:56:11;;;;;;;3.53;1.77;;;;;;;;;;5051427;28;20214;-79
2021/12/31 10:58:39;;;;;;;4.22;1.95;;;;;;;;;;5050794;28;21395;-77
2021/12/31 11:01:07;;;;;;;2.90;1.63;;;;;;;;;;5048786;28;20141;-81
2021/12/31 11:03:37;;;;;;;3.95;2.17;;;;;;;;;;5047564;28;20036;-78
2021/12/31 11:06:04;;;;;;;3.45;1.70;;;;;;;;;;5049366;28;20041;-78
2021/12/31 11:08:32;;;;;;;3.00;2.00;;;;;;;;;;5051032;28;20047;-79
2021/12/31 11:10:59;;;;;;;3.85;1.80;;;;;;;;;;5049603;28;20039;-77
2021/12/31 11:13:28;;;;;;;3.10;1.95;;;;;;;;;;5049518;28;20021;-79
2021/12/31 11:15:55;;;;;;;3.25;2.00;;;;;;;;;;5051133;28;20038;-77
2021/12/31 11:18:23;;;;;;;3.13;1.58;;;;;;;;;;5051889;28;20029;-80
2021/12/31 11:20:56;;;;;;;3.42;1.60;;;;;;;;;;5057497;28;20083;-76
2021/12/31 11:23:26;;;;;;;2.33;1.65;;;;;;;;;;5059720;28;20051;-77
2021/12/31 11:25:55;;;;;;;3.10;1.63;;;;;;;;;;5057973;28;20043;-78
2021/12/31 11:28:32;;;;;;;2.90;1.73;;;;;;;;;;5056088;28;20147;-78
2021/12/31 11:31:20;;;;;;;5.68;2.75;;;;;;;;;;5050613;28;20039;-76
2021/12/31 11:34:11;;;;;;;4.40;1.80;;;;;;;;;;5050961;28;20016;-78
2021/12/31 11:36:54;;;;;;;1.90;1.55;;;;;;;;;;5049647;28;20033;-79
2021/12/31 11:39:32;;;;;;;2.00;1.80;;;;;;;;;;5049832;28;20041;-76
2021/12/31 11:42:02;;;;;;;6.38;1.60;;;;;;;;;;5051102;28;20036;-78
2021/12/31 11:44:29;;;;;;;2.47;1.52;;;;;;;;;;5051431;28;20030;-77
2021/12/31 11:47:09;;;;;;;4.72;1.65;;;;;;;;;;5046960;28;20017;-77
2021/12/31 11:49:35;;;;;;;2.10;1.88;;;;;;;;;;5053872;28;20056;-79
2021/12/31 11:52:05;;;;;;;2.13;1.65;;;;;;;;;;5050573;28;20033;-79
2021/12/31 11:54:32;;;;;;;4.43;1.60;;;;;;;;;;5047686;28;20111;-77
2021/12/31 11:57:00;;;;;;;4.05;1.58;;;;;;;;;;5050452;28;20036;-77
2021/12/31 11:59:30;;;;;;;3.28;1.40;;;;;;;;;;5050133;28;20473;-76
2021/12/31 12:02:20;;;;;;;3.67;1.70;;;;;;;;;;5046622;28;20021;-79
2021/12/31 12:05:11;;;;;;;3.53;1.50;;;;;;;;;;5046418;28;20036;-78
2021/12/31 12:07:46;;;;;;;2.90;1.40;;;;;;;;;;5043372;28;20068;-80
2021/12/31 12:10:14;;;;;;;3.25;1.58;;;;;;;;;;5047891;28;20029;-77
2021/12/31 12:12:43;;;;;;;1.30;1.20;;;;;;;;;;5045042;28;20036;-79
2021/12/31 12:15:15;;;;;;;5.82;1.55;;;;;;;;;;5048133;28;20378;-79
2021/12/31 12:17:44;;;;;;;4.15;1.25;;;;;;;;;;5050786;28;20029;-78
2021/12/31 12:20:13;;;;;;;4.47;1.73;;;;;;;;;;5050054;28;20047;-79
2021/12/31 12:22:49;;;;;;;2.70;1.35;;;;;;;;;;5047167;28;20895;-79
2021/12/31 12:25:24;;;;;;;2.47;1.17;;;;;;;;;;5046416;28;20021;-77
2021/12/31 12:28:06;;;;;;;3.60;1.27;;;;;;;;;;5048898;28;20029;-78
2021/12/31 12:30:34;;;;;;;3.72;1.52;;;;;;;;;;5048837;28;20071;-78
2021/12/31 12:33:16;;;;;;;3.28;1.50;;;;;;;;;;5049249;28;20043;-78
2021/12/31 12:35:50;;;;;;;3.08;1.50;;;;;;;;;;5038958;28;20053;-78
2021/12/31 12:38:29;;;;;;;2.63;1.33;;;;;;;;;;5043218;28;20528;-80
2021/12/31 12:40:56;;;;;;;1.85;1.23;;;;;;;;;;5044818;28;20029;-79
2021/12/31 12:43:30;;;;;;;3.05;1.52;;;;;;;;;;5048413;28;20029;-79
2021/12/31 12:45:56;;;;;;;1.77;1.10;;;;;;;;;;5049318;28;20027;-79
2021/12/31 12:48:38;;;;;;;4.97;1.27;;;;;;;;;;5049790;28;20041;-78
2021/12/31 12:51:07;;;;;;;2.13;1.25;;;;;;;;;;5043686;28;20032;-79
2021/12/31 12:53:36;;;;;;;5.45;1.50;;;;;;;;;;5048164;28;20113;-76
2021/12/31 12:56:09;;;;;;;8.75;2.10;;;;;;;;;;5049329;28;20029;-77
2021/12/31 12:58:37;;;;;;;2.33;1.45;;;;;;;;;;5048196;28;20021;-79
2021/12/31 13:01:06;;;;;;;3.88;1.70;;;;;;;;;;5043235;28;20136;-79
2021/12/31 13:03:32;;;;;;;4.07;2.03;;;;;;;;;;5047639;28;20110;-78
2021/12/31 13:06:06;;;;;;;2.22;1.35;;;;;;;;;;5049125;28;20036;-78
2021/12/31 13:08:32;;;;;;;1.77;1.20;;;;;;;;;;5048128;28;20020;-79
2021/12/31 13:10:59;;;;;;;2.33;1.13;;;;;;;;;;5048857;28;20031;-79
2021/12/31 13:13:25;;;;;;;6.30;1.55;;;;;;;;;;5046409;28;20025;-78
2021/12/31 13:15:51;;;;;;;3.00;1.73;;;;;;;;;;5045836;28;20095;-77
2021/12/31 13:18:31;;;;;;;6.63;1.98;;;;;;;;;;5046788;28;20445;-77
2021/12/31 13:21:12;;;;;;;1.88;1.10;;;;;;;;;;5029954;28;20484;-76
2021/12/31 13:23:39;;;;;;;5.82;1.50;;;;;;;;;;5047191;28;20024;-77
2021/12/31 13:26:33;;;;;;;5.40;1.80;;;;;;;;;;5045829;28;20041;-79
2021/12/31 13:29:04;;;;;;;5.10;1.40;;;;;;;;;;5047142;28;20498;-78
2021/12/31 13:31:34;;;;;;;3.25;1.33;;;;;;;;;;5042326;28;20048;-77
2021/12/31 13:34:14;;;;;;;3.00;1.50;;;;;;;;;;5048388;28;20028;-79
2021/12/31 13:36:57;;;;;;;3.72;1.40;;;;;;;;;;5047245;28;20297;-77
2021/12/31 13:39:31;;;;;;;4.32;1.17;;;;;;;;;;5052610;28;20028;-79
2021/12/31 13:42:12;;;;;;;2.67;1.50;;;;;;;;;;5048692;28;20124;-79
2021/12/31 13:44:40;;;;;;;1.95;1.50;;;;;;;;;;5051796;28;20461;-79
2021/12/31 13:47:11;;;;;;;2.47;1.35;;;;;;;;;;5048267;28;20040;-77
2021/12/31 13:49:40;;;;;;;1.67;1.30;;;;;;;;;;5050847;28;20392;-80
2021/12/31 13:52:17;;;;;;;2.65;1.52;;;;;;;;;;5051184;28;20025;-77
2021/12/31 13:54:44;;;;;;;5.63;1.45;;;;;;;;;;5077009;28;20037;-77
2021/12/31 13:57:22;;;;;;;1.73;1.42;;;;;;;;;;5050556;28;20052;-78
2021/12/31 13:59:49;;;;;;;2.10;1.02;;;;;;;;;;5048525;28;20021;-79
2021/12/31 14:02:25;;;;;;;4.45;1.35;;;;;;;;;;5051685;28;20064;-77
2021/12/31 14:04:53;;;;;;;10.30;2.47;;;;;;;;;;5049995;28;20025;-79
2021/12/31 14:07:21;;;;;;;5.38;1.45;;;;;;;;;;5050418;28;20029;-79
2021/12/31 14:09:48;;;;;;;2.28;1.20;;;;;;;;;;5049658;28;20025;-76
2021/12/31 14:12:14;;;;;;;8.43;2.67;;;;;;;;;;5051425;28;20040;-80
2021/12/31 14:14:40;;;;;;;9.95;1.98;;;;;;;;;;5050894;28;20056;-75
2021/12/31 14:17:10;;;;;;;1.98;1.50;;;;;;;;;;5034263;28;20053;-78
2021/12/31 14:19:37;;;;;;;3.80;1.90;;;;;;;;;;5050147;28;20039;-77
2021/12/31 14:22:03;;;;;;;2.70;1.67;;;;;;;;;;5051939;28;20035;-78
2021/12/31 14:24:30;;;;;;;7.10;2.10;;;;;;;;;;5049722;28;20029;-78
2021/12/31 14:26:56;;;;;;;3.70;1.70;;;;;;;;;;5050017;28;20081;-80
2021/12/31 14:29:22;;;;;;;6.10;1.77;;;;;;;;;;5048089;28;20037;-78
2021/12/31 14:31:48;;;;;;;5.68;2.10;;;;;;;;;;5052127;28;20032;-79
2021/12/31 14:34:15;;;;;;;5.65;2.08;;;;;;;;;;5049119;28;20418;-78
2021/12/31 14:36:53;;;;;;;5.28;2.20;;;;;;;;;;5046303;28;20052;-78
2021/12/31 14:39:20;;;;;;;2.95;1.40;;;;;;;;;;5049812;28;20024;-79
2021/12/31 14:41:46;;;;;;;4.18;2.00;;;;;;;;;;5050130;28;20493;-78
2021/12/31 14:44:11;;;;;;;5.80;1.88;;;;;;;;;;5050736;28;20032;-79
2021/12/31 14:46:37;;;;;;;4.05;2.03;;;;;;;;;;5050983;28;20064;-77
2021/12/31 14:49:03;;;;;;;11.00;1.83;;;;;;;;;;5049098;28;20025;-78
2021/12/31 14:51:29;;;;;;;4.40;1.98;;;;;;;;;;5048859;28;20388;-79
2021/12/31 14:53:54;;;;;;;4.13;1.67;;;;;;;;;;5050770;28;20024;-78